sensor_id;sensor_type;location;lat;lon;timestamp;P1;durP1;ratioP1;P2;durP2;ratioP2
23400;SDS011;11873;49.300;8.920;2022-10-18T00:04:38;3.90;;;3.60;;
23400;SDS011;11873;49.300;8.920;2022-10-18T00:09:38;6.57;;;3.70;;
23400;SDS011;11873;49.300;8.920;2022-10-18T00:14:38;9.27;;;4.27;;
23400;SDS011;11873;49.300;8.920;2022-10-18T00:19:38;5.95;;;3.78;;
23400;SDS011;11873;49.300;8.920;2022-10-18T00:24:38;5.03;;;4.13;;
23400;SDS011;11873;49.300;8.920;2022-10-18T00:29:39;7.43;;;3.70;;
23400;SDS011;11873;49.300;8.920;2022-10-18T00:34:39;4.13;;;3.73;;
23400;SDS011;11873;49.300;8.920;2022-10-18T00:39:40;3.50;;;3.20;;
23400;SDS011;11873;49.300;8.920;2022-10-18T00:49:48;5.27;;;3.80;;
23400;SDS011;11873;49.300;8.920;2022-10-18T00:54:49;4.70;;;3.50;;
23400;SDS011;11873;49.300;8.920;2022-10-18T00:59:50;6.57;;;3.70;;
23400;SDS011;11873;49.300;8.920;2022-10-18T01:04:50;9.33;;;3.87;;
23400;SDS011;11873;49.300;8.920;2022-10-18T01:25:31;7.53;;;3.77;;
23400;SDS011;11873;49.300;8.920;2022-10-18T01:35:36;3.03;;;2.67;;
23400;SDS011;11873;49.300;8.920;2022-10-18T01:40:38;7.20;;;3.63;;
23400;SDS011;11873;49.300;8.920;2022-10-18T01:45:40;7.10;;;3.73;;
23400;SDS011;11873;49.300;8.920;2022-10-18T01:50:40;6.83;;;3.47;;
23400;SDS011;11873;49.300;8.920;2022-10-18T01:55:42;11.47;;;3.60;;
23400;SDS011;11873;49.300;8.920;2022-10-18T02:00:43;3.27;;;2.90;;
23400;SDS011;11873;49.300;8.920;2022-10-18T02:10:47;4.80;;;3.37;;
23400;SDS011;11873;49.300;8.920;2022-10-18T02:15:49;5.20;;;3.60;;
23400;SDS011;11873;49.300;8.920;2022-10-18T02:20:52;4.40;;;3.57;;
23400;SDS011;11873;49.300;8.920;2022-10-18T02:25:53;7.40;;;4.07;;
23400;SDS011;11873;49.300;8.920;2022-10-18T02:36:05;6.80;;;3.77;;
23400;SDS011;11873;49.300;8.920;2022-10-18T02:41:09;8.17;;;3.77;;
23400;SDS011;11873;49.300;8.920;2022-10-18T02:46:09;6.43;;;3.57;;
23400;SDS011;11873;49.300;8.920;2022-10-18T02:51:10;5.23;;;3.20;;
23400;SDS011;11873;49.300;8.920;2022-10-18T02:56:10;8.20;;;3.77;;
23400;SDS011;11873;49.300;8.920;2022-10-18T03:01:10;3.53;;;3.00;;
23400;SDS011;11873;49.300;8.920;2022-10-18T03:06:10;5.30;;;3.57;;
23400;SDS011;11873;49.300;8.920;2022-10-18T03:11:10;4.63;;;3.67;;
23400;SDS011;11873;49.300;8.920;2022-10-18T03:16:11;8.63;;;3.57;;
23400;SDS011;11873;49.300;8.920;2022-10-18T03:21:11;8.60;;;3.53;;
23400;SDS011;11873;49.300;8.920;2022-10-18T03:26:12;4.20;;;3.33;;
23400;SDS011;11873;49.300;8.920;2022-10-18T03:31:12;4.27;;;3.77;;
23400;SDS011;11873;49.300;8.920;2022-10-18T03:36:12;5.57;;;3.87;;
23400;SDS011;11873;49.300;8.920;2022-10-18T03:41:12;5.83;;;3.43;;
23400;SDS011;11873;49.300;8.920;2022-10-18T03:46:12;6.63;;;4.30;;
23400;SDS011;11873;49.300;8.920;2022-10-18T03:51:13;5.83;;;3.30;;
23400;SDS011;11873;49.300;8.920;2022-10-18T03:56:13;9.73;;;3.63;;
23400;SDS011;11873;49.300;8.920;2022-10-18T04:01:13;5.17;;;3.63;;
23400;SDS011;11873;49.300;8.920;2022-10-18T04:06:13;6.27;;;3.90;;
23400;SDS011;11873;49.300;8.920;2022-10-18T04:11:14;4.37;;;3.77;;
23400;SDS011;11873;49.300;8.920;2022-10-18T04:16:14;6.53;;;4.80;;
23400;SDS011;11873;49.300;8.920;2022-10-18T04:21:15;4.67;;;4.27;;
23400;SDS011;11873;49.300;8.920;2022-10-18T04:26:15;7.57;;;3.87;;
23400;SDS011;11873;49.300;8.920;2022-10-18T04:31:16;8.23;;;4.70;;
23400;SDS011;11873;49.300;8.920;2022-10-18T04:36:16;4.37;;;3.53;;
23400;SDS011;11873;49.300;8.920;2022-10-18T04:41:16;16.93;;;10.00;;
23400;SDS011;11873;49.300;8.920;2022-10-18T04:46:16;13.40;;;9.57;;
23400;SDS011;11873;49.300;8.920;2022-10-18T04:51:17;5.73;;;4.93;;
23400;SDS011;11873;49.300;8.920;2022-10-18T04:56:17;5.20;;;4.70;;
23400;SDS011;11873;49.300;8.920;2022-10-18T05:01:17;7.53;;;5.43;;
23400;SDS011;11873;49.300;8.920;2022-10-18T05:06:17;5.87;;;5.27;;
23400;SDS011;11873;49.300;8.920;2022-10-18T05:11:18;6.37;;;4.00;;
23400;SDS011;11873;49.300;8.920;2022-10-18T05:16:18;7.53;;;5.40;;
23400;SDS011;11873;49.300;8.920;2022-10-18T05:21:18;6.70;;;5.40;;
23400;SDS011;11873;49.300;8.920;2022-10-18T05:26:18;9.83;;;6.37;;
23400;SDS011;11873;49.300;8.920;2022-10-18T05:31:18;5.80;;;4.60;;
23400;SDS011;11873;49.300;8.920;2022-10-18T05:36:19;10.50;;;7.53;;
23400;SDS011;11873;49.300;8.920;2022-10-18T05:41:19;8.68;;;5.25;;
23400;SDS011;11873;49.300;8.920;2022-10-18T05:46:19;8.50;;;6.57;;
23400;SDS011;11873;49.300;8.920;2022-10-18T05:51:20;6.33;;;5.53;;
23400;SDS011;11873;49.300;8.920;2022-10-18T05:56:20;5.70;;;4.47;;
23400;SDS011;11873;49.300;8.920;2022-10-18T06:01:20;8.23;;;5.17;;
23400;SDS011;11873;49.300;8.920;2022-10-18T06:06:20;4.87;;;4.07;;
23400;SDS011;11873;49.300;8.920;2022-10-18T06:11:21;6.00;;;4.57;;
23400;SDS011;11873;49.300;8.920;2022-10-18T06:16:21;8.17;;;5.43;;
23400;SDS011;11873;49.300;8.920;2022-10-18T06:21:23;7.90;;;6.13;;
23400;SDS011;11873;49.300;8.920;2022-10-18T06:26:23;8.87;;;6.33;;
23400;SDS011;11873;49.300;8.920;2022-10-18T06:31:24;7.03;;;6.23;;
23400;SDS011;11873;49.300;8.920;2022-10-18T06:36:24;5.73;;;4.87;;
23400;SDS011;11873;49.300;8.920;2022-10-18T06:41:24;6.50;;;3.83;;
23400;SDS011;11873;49.300;8.920;2022-10-18T06:46:25;7.27;;;4.00;;
23400;SDS011;11873;49.300;8.920;2022-10-18T06:51:25;7.57;;;4.57;;
23400;SDS011;11873;49.300;8.920;2022-10-18T06:56:26;5.10;;;3.13;;
23400;SDS011;11873;49.300;8.920;2022-10-18T07:01:26;4.20;;;3.17;;
23400;SDS011;11873;49.300;8.920;2022-10-18T07:06:26;3.27;;;2.97;;
23400;SDS011;11873;49.300;8.920;2022-10-18T07:11:27;7.03;;;3.17;;
23400;SDS011;11873;49.300;8.920;2022-10-18T07:16:27;5.47;;;3.63;;
23400;SDS011;11873;49.300;8.920;2022-10-18T07:21:27;7.03;;;5.43;;
23400;SDS011;11873;49.300;8.920;2022-10-18T07:26:29;11.03;;;5.07;;
23400;SDS011;11873;49.300;8.920;2022-10-18T07:31:29;7.90;;;4.40;;
23400;SDS011;11873;49.300;8.920;2022-10-18T07:36:29;3.60;;;2.97;;
23400;SDS011;11873;49.300;8.920;2022-10-18T07:41:30;8.20;;;3.93;;
23400;SDS011;11873;49.300;8.920;2022-10-18T07:46:30;6.67;;;4.00;;
23400;SDS011;11873;49.300;8.920;2022-10-18T07:51:30;4.07;;;3.30;;
23400;SDS011;11873;49.300;8.920;2022-10-18T07:56:31;7.60;;;3.80;;
23400;SDS011;11873;49.300;8.920;2022-10-18T08:01:31;7.10;;;5.33;;
23400;SDS011;11873;49.300;8.920;2022-10-18T08:06:31;9.00;;;5.00;;
23400;SDS011;11873;49.300;8.920;2022-10-18T08:11:31;7.77;;;4.63;;
23400;SDS011;11873;49.300;8.920;2022-10-18T08:16:31;4.40;;;3.90;;
23400;SDS011;11873;49.300;8.920;2022-10-18T08:21:32;5.63;;;3.90;;
23400;SDS011;11873;49.300;8.920;2022-10-18T08:26:32;7.83;;;4.30;;
23400;SDS011;11873;49.300;8.920;2022-10-18T08:31:32;6.83;;;4.63;;
23400;SDS011;11873;49.300;8.920;2022-10-18T08:36:32;4.03;;;3.43;;
23400;SDS011;11873;49.300;8.920;2022-10-18T08:46:36;5.73;;;3.50;;
23400;SDS011;11873;49.300;8.920;2022-10-18T08:51:38;4.47;;;3.60;;
23400;SDS011;11873;49.300;8.920;2022-10-18T08:56:40;3.63;;;3.30;;
23400;SDS011;11873;49.300;8.920;2022-10-18T09:22:05;5.37;;;2.80;;
23400;SDS011;11873;49.300;8.920;2022-10-18T09:27:14;2.90;;;2.67;;
23400;SDS011;11873;49.300;8.920;2022-10-18T09:37:34;4.70;;;2.70;;
23400;SDS011;11873;49.300;8.920;2022-10-18T09:42:35;3.37;;;2.90;;
23400;SDS011;11873;49.300;8.920;2022-10-18T09:47:38;3.20;;;2.67;;
23400;SDS011;11873;49.300;8.920;2022-10-18T09:52:45;2.57;;;2.33;;
23400;SDS011;11873;49.300;8.920;2022-10-18T09:57:58;5.23;;;3.13;;
23400;SDS011;11873;49.300;8.920;2022-10-18T10:02:59;2.87;;;2.67;;
23400;SDS011;11873;49.300;8.920;2022-10-18T10:08:00;4.23;;;2.93;;
23400;SDS011;11873;49.300;8.920;2022-10-18T10:13:19;4.80;;;3.50;;
23400;SDS011;11873;49.300;8.920;2022-10-18T10:18:24;4.57;;;2.90;;
23400;SDS011;11873;49.300;8.920;2022-10-18T10:28:57;4.63;;;3.47;;
23400;SDS011;11873;49.300;8.920;2022-10-18T10:34:04;3.40;;;3.10;;
23400;SDS011;11873;49.300;8.920;2022-10-18T10:39:06;8.77;;;3.97;;
23400;SDS011;11873;49.300;8.920;2022-10-18T10:44:39;4.50;;;2.70;;
23400;SDS011;11873;49.300;8.920;2022-10-18T10:49:43;4.20;;;3.30;;
23400;SDS011;11873;49.300;8.920;2022-10-18T10:54:45;5.73;;;4.40;;
23400;SDS011;11873;49.300;8.920;2022-10-18T10:59:47;4.73;;;4.30;;
23400;SDS011;11873;49.300;8.920;2022-10-18T11:04:49;4.30;;;3.90;;
23400;SDS011;11873;49.300;8.920;2022-10-18T11:09:55;5.77;;;3.93;;
23400;SDS011;11873;49.300;8.920;2022-10-18T11:15:13;8.27;;;4.30;;
23400;SDS011;11873;49.300;8.920;2022-10-18T11:20:31;8.37;;;4.70;;
23400;SDS011;11873;49.300;8.920;2022-10-18T11:25:39;6.43;;;5.27;;
23400;SDS011;11873;49.300;8.920;2022-10-18T11:30:47;6.10;;;5.33;;
23400;SDS011;11873;49.300;8.920;2022-10-18T11:41:02;4.97;;;4.50;;
23400;SDS011;11873;49.300;8.920;2022-10-18T12:06:27;4.13;;;3.83;;
23400;SDS011;11873;49.300;8.920;2022-10-18T12:11:32;5.93;;;4.53;;
23400;SDS011;11873;49.300;8.920;2022-10-18T12:16:36;6.17;;;4.13;;
23400;SDS011;11873;49.300;8.920;2022-10-18T12:21:38;8.40;;;4.37;;
23400;SDS011;11873;49.300;8.920;2022-10-18T12:26:39;4.90;;;4.40;;
23400;SDS011;11873;49.300;8.920;2022-10-18T12:32:02;3.57;;;3.27;;
23400;SDS011;11873;49.300;8.920;2022-10-18T12:42:00;6.97;;;5.57;;
23400;SDS011;11873;49.300;8.920;2022-10-18T12:47:03;5.50;;;4.53;;
23400;SDS011;11873;49.300;8.920;2022-10-18T12:57:05;3.90;;;3.60;;
23400;SDS011;11873;49.300;8.920;2022-10-18T13:02:26;4.87;;;3.50;;
23400;SDS011;11873;49.300;8.920;2022-10-18T13:12:51;3.87;;;2.93;;
23400;SDS011;11873;49.300;8.920;2022-10-18T13:17:55;2.23;;;2.03;;
23400;SDS011;11873;49.300;8.920;2022-10-18T13:23:26;1.90;;;1.70;;
23400;SDS011;11873;49.300;8.920;2022-10-18T13:33:39;2.30;;;2.10;;
23400;SDS011;11873;49.300;8.920;2022-10-18T13:38:57;2.63;;;2.43;;
23400;SDS011;11873;49.300;8.920;2022-10-18T13:44:02;4.10;;;2.13;;
23400;SDS011;11873;49.300;8.920;2022-10-18T13:59:50;2.00;;;1.90;;
23400;SDS011;11873;49.300;8.920;2022-10-18T14:10:01;1.47;;;1.37;;
23400;SDS011;11873;49.300;8.920;2022-10-18T14:15:04;1.73;;;1.60;;
23400;SDS011;11873;49.300;8.920;2022-10-18T14:20:14;1.53;;;1.43;;
23400;SDS011;11873;49.300;8.920;2022-10-18T14:25:24;1.73;;;1.57;;
23400;SDS011;11873;49.300;8.920;2022-10-18T14:30:25;1.80;;;1.53;;
23400;SDS011;11873;49.300;8.920;2022-10-18T14:35:26;3.17;;;1.80;;
23400;SDS011;11873;49.300;8.920;2022-10-18T14:40:28;1.97;;;1.87;;
23400;SDS011;11873;49.300;8.920;2022-10-18T14:45:29;2.07;;;1.90;;
23400;SDS011;11873;49.300;8.920;2022-10-18T14:50:29;2.53;;;1.80;;
23400;SDS011;11873;49.300;8.920;2022-10-18T14:55:29;1.77;;;1.67;;
23400;SDS011;11873;49.300;8.920;2022-10-18T15:00:34;1.83;;;1.73;;
23400;SDS011;11873;49.300;8.920;2022-10-18T15:05:35;1.93;;;1.77;;
23400;SDS011;11873;49.300;8.920;2022-10-18T15:10:35;3.13;;;1.70;;
23400;SDS011;11873;49.300;8.920;2022-10-18T15:15:35;2.33;;;1.80;;
23400;SDS011;11873;49.300;8.920;2022-10-18T15:20:36;2.27;;;1.70;;
23400;SDS011;11873;49.300;8.920;2022-10-18T15:25:36;2.03;;;1.80;;
23400;SDS011;11873;49.300;8.920;2022-10-18T15:30:38;1.97;;;1.43;;
23400;SDS011;11873;49.300;8.920;2022-10-18T15:35:38;1.73;;;1.63;;
23400;SDS011;11873;49.300;8.920;2022-10-18T15:40:39;1.60;;;1.47;;
23400;SDS011;11873;49.300;8.920;2022-10-18T15:45:45;1.60;;;1.50;;
23400;SDS011;11873;49.300;8.920;2022-10-18T15:50:49;1.90;;;1.80;;
23400;SDS011;11873;49.300;8.920;2022-10-18T15:55:51;4.43;;;2.03;;
23400;SDS011;11873;49.300;8.920;2022-10-18T16:00:53;3.37;;;2.77;;
23400;SDS011;11873;49.300;8.920;2022-10-18T16:05:57;2.73;;;2.20;;
23400;SDS011;11873;49.300;8.920;2022-10-18T16:10:58;4.90;;;2.37;;
23400;SDS011;11873;49.300;8.920;2022-10-18T16:15:58;3.93;;;3.00;;
23400;SDS011;11873;49.300;8.920;2022-10-18T16:20:58;2.13;;;1.57;;
23400;SDS011;11873;49.300;8.920;2022-10-18T16:25:59;4.83;;;1.90;;
23400;SDS011;11873;49.300;8.920;2022-10-18T16:31:01;1.70;;;1.60;;
23400;SDS011;11873;49.300;8.920;2022-10-18T16:36:02;2.67;;;2.10;;
23400;SDS011;11873;49.300;8.920;2022-10-18T16:41:02;4.00;;;1.80;;
23400;SDS011;11873;49.300;8.920;2022-10-18T16:46:03;2.17;;;1.97;;
23400;SDS011;11873;49.300;8.920;2022-10-18T16:51:03;2.13;;;2.00;;
23400;SDS011;11873;49.300;8.920;2022-10-18T16:56:04;3.13;;;2.40;;
23400;SDS011;11873;49.300;8.920;2022-10-18T17:01:05;4.27;;;2.63;;
23400;SDS011;11873;49.300;8.920;2022-10-18T17:06:08;4.40;;;2.80;;
23400;SDS011;11873;49.300;8.920;2022-10-18T17:11:13;2.73;;;2.20;;
23400;SDS011;11873;49.300;8.920;2022-10-18T17:21:19;2.53;;;2.33;;
23400;SDS011;11873;49.300;8.920;2022-10-18T17:26:21;4.10;;;2.10;;
23400;SDS011;11873;49.300;8.920;2022-10-18T17:31:24;3.50;;;2.37;;
23400;SDS011;11873;49.300;8.920;2022-10-18T17:36:24;4.13;;;2.60;;
23400;SDS011;11873;49.300;8.920;2022-10-18T17:41:24;2.97;;;2.77;;
23400;SDS011;11873;49.300;8.920;2022-10-18T17:46:25;7.23;;;3.50;;
23400;SDS011;11873;49.300;8.920;2022-10-18T17:51:25;3.87;;;3.13;;
23400;SDS011;11873;49.300;8.920;2022-10-18T17:56:25;8.03;;;3.37;;
23400;SDS011;11873;49.300;8.920;2022-10-18T18:01:26;3.80;;;3.40;;
23400;SDS011;11873;49.300;8.920;2022-10-18T18:06:27;4.93;;;3.20;;
23400;SDS011;11873;49.300;8.920;2022-10-18T18:11:27;3.47;;;3.00;;
23400;SDS011;11873;49.300;8.920;2022-10-18T18:16:28;5.87;;;3.83;;
23400;SDS011;11873;49.300;8.920;2022-10-18T18:21:28;5.83;;;3.70;;
23400;SDS011;11873;49.300;8.920;2022-10-18T18:26:32;4.00;;;2.67;;
23400;SDS011;11873;49.300;8.920;2022-10-18T18:31:32;3.10;;;2.50;;
23400;SDS011;11873;49.300;8.920;2022-10-18T18:36:32;5.30;;;2.83;;
23400;SDS011;11873;49.300;8.920;2022-10-18T18:41:33;4.73;;;3.17;;
23400;SDS011;11873;49.300;8.920;2022-10-18T18:46:34;3.30;;;3.00;;
23400;SDS011;11873;49.300;8.920;2022-10-18T18:51:34;2.97;;;2.63;;
23400;SDS011;11873;49.300;8.920;2022-10-18T18:56:35;3.87;;;2.50;;
23400;SDS011;11873;49.300;8.920;2022-10-18T19:01:35;2.50;;;2.30;;
23400;SDS011;11873;49.300;8.920;2022-10-18T19:06:37;3.13;;;2.30;;
23400;SDS011;11873;49.300;8.920;2022-10-18T19:11:37;3.03;;;2.30;;
23400;SDS011;11873;49.300;8.920;2022-10-18T19:16:38;4.13;;;2.90;;
23400;SDS011;11873;49.300;8.920;2022-10-18T19:21:40;4.43;;;2.67;;
23400;SDS011;11873;49.300;8.920;2022-10-18T19:26:41;5.30;;;3.00;;
23400;SDS011;11873;49.300;8.920;2022-10-18T19:31:42;4.40;;;2.90;;
23400;SDS011;11873;49.300;8.920;2022-10-18T19:36:43;3.17;;;2.60;;
23400;SDS011;11873;49.300;8.920;2022-10-18T19:41:47;3.43;;;3.10;;
23400;SDS011;11873;49.300;8.920;2022-10-18T19:46:48;4.13;;;3.10;;
23400;SDS011;11873;49.300;8.920;2022-10-18T19:51:48;2.83;;;2.40;;
23400;SDS011;11873;49.300;8.920;2022-10-18T19:56:48;5.30;;;2.83;;
23400;SDS011;11873;49.300;8.920;2022-10-18T20:01:49;6.10;;;3.30;;
23400;SDS011;11873;49.300;8.920;2022-10-18T20:06:49;4.40;;;3.53;;
23400;SDS011;11873;49.300;8.920;2022-10-18T20:11:49;3.97;;;2.93;;
23400;SDS011;11873;49.300;8.920;2022-10-18T20:16:49;4.77;;;2.93;;
23400;SDS011;11873;49.300;8.920;2022-10-18T20:21:49;5.93;;;3.07;;
23400;SDS011;11873;49.300;8.920;2022-10-18T20:26:50;4.83;;;2.60;;
23400;SDS011;11873;49.300;8.920;2022-10-18T20:31:50;4.83;;;2.90;;
23400;SDS011;11873;49.300;8.920;2022-10-18T20:36:52;4.70;;;2.67;;
23400;SDS011;11873;49.300;8.920;2022-10-18T20:41:52;6.73;;;5.87;;
23400;SDS011;11873;49.300;8.920;2022-10-18T20:46:52;9.87;;;4.37;;
23400;SDS011;11873;49.300;8.920;2022-10-18T20:51:53;6.83;;;3.43;;
23400;SDS011;11873;49.300;8.920;2022-10-18T20:56:53;8.93;;;4.20;;
23400;SDS011;11873;49.300;8.920;2022-10-18T21:01:53;6.27;;;3.97;;
23400;SDS011;11873;49.300;8.920;2022-10-18T21:06:53;9.20;;;4.63;;
23400;SDS011;11873;49.300;8.920;2022-10-18T21:11:53;5.63;;;4.30;;
23400;SDS011;11873;49.300;8.920;2022-10-18T21:16:54;8.53;;;4.70;;
23400;SDS011;11873;49.300;8.920;2022-10-18T21:21:55;8.70;;;4.60;;
23400;SDS011;11873;49.300;8.920;2022-10-18T21:26:56;6.70;;;4.43;;
23400;SDS011;11873;49.300;8.920;2022-10-18T21:31:56;5.60;;;3.73;;
23400;SDS011;11873;49.300;8.920;2022-10-18T21:36:56;8.53;;;3.47;;
23400;SDS011;11873;49.300;8.920;2022-10-18T21:41:56;8.83;;;3.73;;
23400;SDS011;11873;49.300;8.920;2022-10-18T21:46:56;5.30;;;3.90;;
23400;SDS011;11873;49.300;8.920;2022-10-18T21:51:56;7.77;;;4.17;;
23400;SDS011;11873;49.300;8.920;2022-10-18T21:56:57;5.83;;;4.37;;
23400;SDS011;11873;49.300;8.920;2022-10-18T22:01:57;7.67;;;5.07;;
23400;SDS011;11873;49.300;8.920;2022-10-18T22:06:57;9.47;;;5.13;;
23400;SDS011;11873;49.300;8.920;2022-10-18T22:11:57;8.53;;;5.07;;
23400;SDS011;11873;49.300;8.920;2022-10-18T22:16:57;6.50;;;4.90;;
23400;SDS011;11873;49.300;8.920;2022-10-18T22:21:58;11.90;;;5.13;;
23400;SDS011;11873;49.300;8.920;2022-10-18T22:26:58;11.57;;;5.93;;
23400;SDS011;11873;49.300;8.920;2022-10-18T22:31:58;6.53;;;4.97;;
23400;SDS011;11873;49.300;8.920;2022-10-18T22:36:58;10.00;;;6.17;;
23400;SDS011;11873;49.300;8.920;2022-10-18T22:41:58;7.10;;;4.77;;
23400;SDS011;11873;49.300;8.920;2022-10-18T22:46:59;9.60;;;4.73;;
23400;SDS011;11873;49.300;8.920;2022-10-18T22:51:59;6.97;;;4.70;;
23400;SDS011;11873;49.300;8.920;2022-10-18T22:56:59;7.93;;;4.57;;
23400;SDS011;11873;49.300;8.920;2022-10-18T23:01:59;4.87;;;4.37;;
23400;SDS011;11873;49.300;8.920;2022-10-18T23:06:59;6.23;;;4.87;;
23400;SDS011;11873;49.300;8.920;2022-10-18T23:12:00;5.73;;;4.47;;
23400;SDS011;11873;49.300;8.920;2022-10-18T23:17:00;4.90;;;4.37;;
23400;SDS011;11873;49.300;8.920;2022-10-18T23:22:00;4.53;;;4.13;;
23400;SDS011;11873;49.300;8.920;2022-10-18T23:27:00;6.03;;;3.70;;
23400;SDS011;11873;49.300;8.920;2022-10-18T23:32:00;3.27;;;3.07;;
23400;SDS011;11873;49.300;8.920;2022-10-18T23:37:01;2.70;;;2.50;;
23400;SDS011;11873;49.300;8.920;2022-10-18T23:42:01;3.00;;;2.80;;
23400;SDS011;11873;49.300;8.920;2022-10-18T23:47:01;3.47;;;3.03;;
23400;SDS011;11873;49.300;8.920;2022-10-18T23:52:01;2.50;;;2.30;;
23400;SDS011;11873;49.300;8.920;2022-10-18T23:57:01;2.80;;;2.17;;
